Impacts METAR Board INFO
IDs:

KPIT - Pittsburgh Intl, PA, US

Updated at: 0039 UTC 14 Dec 2017
Potential Impact None Slight Moderate High
Time13/12Z 13/13Z 13/14Z 13/15Z 13/16Z 13/17Z 13/18Z 13/19Z 13/20Z 13/21Z 13/22Z 13/23Z 14/00Z
VIS10 10 10 10 10 10 10 8 4 1 10 10 10
CIG45 42 80 44 30 31 220 31 35 22 32 110 43
CoverBKNBKNBKNBKNOVCOVCOVCOVCOVCOVCOVCOVCOVC
FltCatVFRVFRVFRVFRMVFRVFRVFRVFRMVFRIFRVFRVFRVFR
WX---------------SN-SN-SN BR------
WDir2702402402602502500220220180170140140
WSpd10 9 8 10 8 9 4 10 11 7 6 12 7
WGst17 -- -- -- 17 -- 16 -- -- -- -- -- --
Raw hourly METARs
KPIT 131151Z 27010G17KT 10SM BKN045 M08/M16 A2982 RMK AO2 SLP126 7//// T10831156 11083 21094 53009
KPIT 131251Z 24009KT 10SM BKN042 M08/M15 A2983 RMK AO2 SLP127 T10831150
KPIT 131351Z 24008KT 10SM SCT041 BKN080 M08/M14 A2982 RMK AO2 SLP124 T10781144
KPIT 131451Z 26010KT 10SM FEW028 BKN044 BKN250 M07/M13 A2982 RMK AO2 SLP126 T10671133 55001
KPIT 131551Z 25008G17KT 10SM BKN030 BKN035 OVC042 M06/M12 A2980 RMK AO2 SLP117 BINOVC T10561122
KPIT 131651Z 25009KT 10SM BKN031 OVC220 M05/M12 A2977 RMK AO2 SLP106 T10501122
KPIT 131751Z VRB04G16KT 10SM FEW034 SCT060 OVC220 M04/M13 A2972 RMK AO2 SLP090 T10391128 11039 21083 58033
KPIT 131851Z 22010KT 8SM -SN FEW025 BKN031 OVC043 M04/M11 A2968 RMK AO2 SNB20 SLP077 P0000 T10441111
KPIT 131951Z 22011KT 4SM -SN SCT026 BKN035 OVC044 M04/M10 A2965 RMK AO2 SLP067 P0000 T10441100
KPIT 132051Z 18007KT 1SM R28R/4500V6000FT -SN BR SCT015 BKN022 OVC029 M06/M08 A2961 RMK AO2 SLP051 P0000 60000 T10561078 58039
KPIT 132151Z 17006KT 10SM FEW012 BKN032 OVC055 M05/M08 A2958 RMK AO2 SNE51 SLP041 P0001 T10501078
KPIT 132251Z 14012KT 10SM FEW015 SCT040 OVC110 M05/M08 A2953 RMK AO2 SLP025 T10501083
KPIT 132351Z 14007KT 10SM BKN043 OVC065 M05/M08 A2952 RMK AO2 SLP021 60001 T10501083 11039 21056 56028